sensor_id;sensor_type;location;lat;lon;timestamp;P1;durP1;ratioP1;P2;durP2;ratioP2
31584;SDS011;18191;51.288;12.390;2023-08-06T00:02:52;4.90;;;2.92;;
31584;SDS011;18191;51.288;12.390;2023-08-06T00:07:43;5.57;;;2.90;;
31584;SDS011;18191;51.288;12.390;2023-08-06T00:12:36;5.15;;;3.15;;
31584;SDS011;18191;51.288;12.390;2023-08-06T00:17:27;5.82;;;3.28;;
31584;SDS011;18191;51.288;12.390;2023-08-06T00:22:17;7.22;;;3.53;;
31584;SDS011;18191;51.288;12.390;2023-08-06T00:27:07;7.55;;;3.65;;
31584;SDS011;18191;51.288;12.390;2023-08-06T00:31:58;8.68;;;3.90;;
31584;SDS011;18191;51.288;12.390;2023-08-06T00:36:48;14.68;;;3.97;;
31584;SDS011;18191;51.288;12.390;2023-08-06T00:41:38;12.25;;;4.22;;
31584;SDS011;18191;51.288;12.390;2023-08-06T00:46:29;15.43;;;4.15;;
31584;SDS011;18191;51.288;12.390;2023-08-06T00:51:20;8.27;;;4.15;;
31584;SDS011;18191;51.288;12.390;2023-08-06T00:56:10;5.50;;;3.40;;
31584;SDS011;18191;51.288;12.390;2023-08-06T01:01:02;7.30;;;3.53;;
31584;SDS011;18191;51.288;12.390;2023-08-06T01:05:52;7.82;;;3.58;;
31584;SDS011;18191;51.288;12.390;2023-08-06T01:15:45;16.03;;;4.70;;
31584;SDS011;18191;51.288;12.390;2023-08-06T01:20:37;9.48;;;4.00;;
31584;SDS011;18191;51.288;12.390;2023-08-06T01:25:34;8.98;;;4.03;;
31584;SDS011;18191;51.288;12.390;2023-08-06T01:30:33;10.75;;;4.32;;
31584;SDS011;18191;51.288;12.390;2023-08-06T01:35:30;8.20;;;4.60;;
31584;SDS011;18191;51.288;12.390;2023-08-06T01:40:22;14.93;;;6.28;;
31584;SDS011;18191;51.288;12.390;2023-08-06T01:45:13;8.95;;;5.18;;
31584;SDS011;18191;51.288;12.390;2023-08-06T01:50:04;14.57;;;4.63;;
31584;SDS011;18191;51.288;12.390;2023-08-06T01:54:54;7.25;;;4.07;;
31584;SDS011;18191;51.288;12.390;2023-08-06T02:04:35;5.78;;;3.60;;
31584;SDS011;18191;51.288;12.390;2023-08-06T02:09:25;7.15;;;3.58;;
31584;SDS011;18191;51.288;12.390;2023-08-06T02:14:16;4.65;;;3.17;;
31584;SDS011;18191;51.288;12.390;2023-08-06T02:19:06;10.52;;;3.42;;
31584;SDS011;18191;51.288;12.390;2023-08-06T02:23:56;5.65;;;3.50;;
31584;SDS011;18191;51.288;12.390;2023-08-06T02:28:46;10.23;;;4.75;;
31584;SDS011;18191;51.288;12.390;2023-08-06T02:33:37;7.35;;;3.88;;
31584;SDS011;18191;51.288;12.390;2023-08-06T02:38:27;8.27;;;4.32;;
31584;SDS011;18191;51.288;12.390;2023-08-06T02:43:17;8.25;;;4.47;;
31584;SDS011;18191;51.288;12.390;2023-08-06T02:48:08;13.00;;;5.50;;
31584;SDS011;18191;51.288;12.390;2023-08-06T02:52:58;15.07;;;4.83;;
31584;SDS011;18191;51.288;12.390;2023-08-06T02:57:48;7.72;;;4.55;;
31584;SDS011;18191;51.288;12.390;2023-08-06T03:02:38;10.80;;;5.00;;
31584;SDS011;18191;51.288;12.390;2023-08-06T03:07:29;7.75;;;4.60;;
31584;SDS011;18191;51.288;12.390;2023-08-06T03:12:19;10.32;;;5.45;;
31584;SDS011;18191;51.288;12.390;2023-08-06T03:22:00;11.57;;;4.90;;
31584;SDS011;18191;51.288;12.390;2023-08-06T03:26:50;15.10;;;5.18;;
31584;SDS011;18191;51.288;12.390;2023-08-06T03:31:40;10.80;;;5.73;;
31584;SDS011;18191;51.288;12.390;2023-08-06T03:41:21;8.70;;;4.03;;
31584;SDS011;18191;51.288;12.390;2023-08-06T03:46:11;16.92;;;4.47;;
31584;SDS011;18191;51.288;12.390;2023-08-06T03:51:01;8.80;;;5.03;;
31584;SDS011;18191;51.288;12.390;2023-08-06T03:55:52;6.20;;;4.20;;
31584;SDS011;18191;51.288;12.390;2023-08-06T04:00:42;8.07;;;4.50;;
31584;SDS011;18191;51.288;12.390;2023-08-06T04:05:32;8.52;;;4.97;;
31584;SDS011;18191;51.288;12.390;2023-08-06T04:10:23;6.03;;;4.20;;
31584;SDS011;18191;51.288;12.390;2023-08-06T04:15:13;13.63;;;4.15;;
31584;SDS011;18191;51.288;12.390;2023-08-06T04:24:54;6.70;;;3.70;;
31584;SDS011;18191;51.288;12.390;2023-08-06T04:29:44;11.20;;;3.97;;
31584;SDS011;18191;51.288;12.390;2023-08-06T04:34:35;9.48;;;3.58;;
31584;SDS011;18191;51.288;12.390;2023-08-06T04:39:26;5.78;;;2.97;;
31584;SDS011;18191;51.288;12.390;2023-08-06T04:49:06;8.02;;;3.25;;
31584;SDS011;18191;51.288;12.390;2023-08-06T04:53:57;7.78;;;2.78;;
31584;SDS011;18191;51.288;12.390;2023-08-06T05:03:37;3.95;;;2.60;;
31584;SDS011;18191;51.288;12.390;2023-08-06T05:13:18;5.32;;;2.58;;
31584;SDS011;18191;51.288;12.390;2023-08-06T05:18:08;4.22;;;2.55;;
31584;SDS011;18191;51.288;12.390;2023-08-06T05:22:59;6.20;;;2.03;;
31584;SDS011;18191;51.288;12.390;2023-08-06T05:27:49;4.15;;;2.40;;
31584;SDS011;18191;51.288;12.390;2023-08-06T05:32:39;3.03;;;2.05;;
31584;SDS011;18191;51.288;12.390;2023-08-06T05:37:30;4.13;;;1.93;;
31584;SDS011;18191;51.288;12.390;2023-08-06T05:42:20;3.60;;;2.10;;
31584;SDS011;18191;51.288;12.390;2023-08-06T05:47:10;2.67;;;1.63;;
31584;SDS011;18191;51.288;12.390;2023-08-06T05:52:00;3.58;;;1.90;;
31584;SDS011;18191;51.288;12.390;2023-08-06T05:56:51;3.28;;;1.80;;
31584;SDS011;18191;51.288;12.390;2023-08-06T06:01:41;2.50;;;1.80;;
31584;SDS011;18191;51.288;12.390;2023-08-06T06:06:31;3.33;;;2.10;;
31584;SDS011;18191;51.288;12.390;2023-08-06T06:11:22;6.35;;;2.13;;
31584;SDS011;18191;51.288;12.390;2023-08-06T06:16:12;4.20;;;1.95;;
31584;SDS011;18191;51.288;12.390;2023-08-06T06:21:02;3.33;;;1.65;;
31584;SDS011;18191;51.288;12.390;2023-08-06T06:25:53;4.50;;;1.85;;
31584;SDS011;18191;51.288;12.390;2023-08-06T06:30:43;6.97;;;1.52;;
31584;SDS011;18191;51.288;12.390;2023-08-06T06:35:33;2.45;;;1.65;;
31584;SDS011;18191;51.288;12.390;2023-08-06T06:40:24;5.32;;;2.03;;
31584;SDS011;18191;51.288;12.390;2023-08-06T06:45:14;5.13;;;1.75;;
31584;SDS011;18191;51.288;12.390;2023-08-06T06:50:04;7.47;;;2.50;;
31584;SDS011;18191;51.288;12.390;2023-08-06T06:54:55;3.80;;;1.70;;
31584;SDS011;18191;51.288;12.390;2023-08-06T06:59:45;2.70;;;1.85;;
31584;SDS011;18191;51.288;12.390;2023-08-06T07:04:36;3.03;;;1.52;;
31584;SDS011;18191;51.288;12.390;2023-08-06T07:09:26;3.97;;;1.55;;
31584;SDS011;18191;51.288;12.390;2023-08-06T07:14:16;5.72;;;1.48;;
31584;SDS011;18191;51.288;12.390;2023-08-06T07:19:07;1.95;;;1.50;;
31584;SDS011;18191;51.288;12.390;2023-08-06T07:23:57;3.88;;;1.70;;
31584;SDS011;18191;51.288;12.390;2023-08-06T07:28:49;2.72;;;1.50;;
31584;SDS011;18191;51.288;12.390;2023-08-06T07:33:39;2.77;;;1.33;;
31584;SDS011;18191;51.288;12.390;2023-08-06T07:38:30;2.70;;;1.70;;
31584;SDS011;18191;51.288;12.390;2023-08-06T07:43:20;4.97;;;1.35;;
31584;SDS011;18191;51.288;12.390;2023-08-06T07:48:10;4.78;;;1.30;;
31584;SDS011;18191;51.288;12.390;2023-08-06T07:53:00;1.85;;;1.17;;
31584;SDS011;18191;51.288;12.390;2023-08-06T07:57:51;4.32;;;1.48;;
31584;SDS011;18191;51.288;12.390;2023-08-06T08:02:41;2.22;;;1.27;;
31584;SDS011;18191;51.288;12.390;2023-08-06T08:07:31;2.53;;;1.58;;
31584;SDS011;18191;51.288;12.390;2023-08-06T08:12:22;2.53;;;1.63;;
31584;SDS011;18191;51.288;12.390;2023-08-06T08:17:12;2.03;;;1.20;;
31584;SDS011;18191;51.288;12.390;2023-08-06T08:22:02;1.45;;;1.10;;
31584;SDS011;18191;51.288;12.390;2023-08-06T08:26:53;1.48;;;1.25;;
31584;SDS011;18191;51.288;12.390;2023-08-06T08:31:43;4.70;;;1.30;;
31584;SDS011;18191;51.288;12.390;2023-08-06T08:36:34;2.58;;;1.40;;
31584;SDS011;18191;51.288;12.390;2023-08-06T08:41:24;1.67;;;1.25;;
31584;SDS011;18191;51.288;12.390;2023-08-06T08:46:18;2.83;;;1.45;;
31584;SDS011;18191;51.288;12.390;2023-08-06T08:51:09;2.42;;;1.25;;
31584;SDS011;18191;51.288;12.390;2023-08-06T08:56:01;2.00;;;1.30;;
31584;SDS011;18191;51.288;12.390;2023-08-06T09:00:51;2.20;;;1.30;;
31584;SDS011;18191;51.288;12.390;2023-08-06T09:05:45;3.42;;;1.35;;
31584;SDS011;18191;51.288;12.390;2023-08-06T09:10:42;2.30;;;1.50;;
31584;SDS011;18191;51.288;12.390;2023-08-06T09:15:33;2.05;;;1.35;;
31584;SDS011;18191;51.288;12.390;2023-08-06T09:20:24;6.25;;;1.38;;
31584;SDS011;18191;51.288;12.390;2023-08-06T09:25:20;1.48;;;1.20;;
31584;SDS011;18191;51.288;12.390;2023-08-06T09:30:13;1.67;;;1.10;;
31584;SDS011;18191;51.288;12.390;2023-08-06T09:35:21;1.77;;;1.20;;
31584;SDS011;18191;51.288;12.390;2023-08-06T09:40:27;3.70;;;1.33;;
31584;SDS011;18191;51.288;12.390;2023-08-06T09:45:18;1.50;;;1.10;;
31584;SDS011;18191;51.288;12.390;2023-08-06T09:50:16;2.25;;;1.42;;
31584;SDS011;18191;51.288;12.390;2023-08-06T09:55:13;2.08;;;1.50;;
31584;SDS011;18191;51.288;12.390;2023-08-06T10:00:04;2.20;;;1.65;;
31584;SDS011;18191;51.288;12.390;2023-08-06T10:04:55;1.85;;;1.38;;
31584;SDS011;18191;51.288;12.390;2023-08-06T10:09:46;2.45;;;1.00;;
31584;SDS011;18191;51.288;12.390;2023-08-06T10:14:36;1.58;;;1.27;;
31584;SDS011;18191;51.288;12.390;2023-08-06T10:19:29;2.03;;;1.50;;
31584;SDS011;18191;51.288;12.390;2023-08-06T10:24:21;2.42;;;1.80;;
31584;SDS011;18191;51.288;12.390;2023-08-06T10:39:48;2.83;;;1.80;;
31584;SDS011;18191;51.288;12.390;2023-08-06T10:45:10;3.38;;;1.70;;
31584;SDS011;18191;51.288;12.390;2023-08-06T10:50:07;1.95;;;1.60;;
31584;SDS011;18191;51.288;12.390;2023-08-06T10:55:00;4.03;;;1.48;;
31584;SDS011;18191;51.288;12.390;2023-08-06T10:59:50;3.45;;;1.65;;
31584;SDS011;18191;51.288;12.390;2023-08-06T11:04:41;5.70;;;1.70;;
31584;SDS011;18191;51.288;12.390;2023-08-06T11:09:31;2.80;;;1.48;;
31584;SDS011;18191;51.288;12.390;2023-08-06T11:14:21;3.47;;;1.90;;
31584;SDS011;18191;51.288;12.390;2023-08-06T11:19:12;3.08;;;2.03;;
31584;SDS011;18191;51.288;12.390;2023-08-06T11:24:02;3.17;;;1.83;;
31584;SDS011;18191;51.288;12.390;2023-08-06T11:28:52;10.67;;;1.77;;
31584;SDS011;18191;51.288;12.390;2023-08-06T11:33:43;4.00;;;1.90;;
31584;SDS011;18191;51.288;12.390;2023-08-06T11:38:33;6.27;;;2.17;;
31584;SDS011;18191;51.288;12.390;2023-08-06T11:43:23;4.10;;;2.07;;
31584;SDS011;18191;51.288;12.390;2023-08-06T11:48:13;5.32;;;2.15;;
31584;SDS011;18191;51.288;12.390;2023-08-06T11:53:04;7.43;;;1.80;;
31584;SDS011;18191;51.288;12.390;2023-08-06T11:57:55;4.88;;;2.35;;
31584;SDS011;18191;51.288;12.390;2023-08-06T12:02:46;5.65;;;2.80;;
31584;SDS011;18191;51.288;12.390;2023-08-06T12:07:37;6.85;;;2.03;;
31584;SDS011;18191;51.288;12.390;2023-08-06T12:12:29;2.33;;;1.90;;
31584;SDS011;18191;51.288;12.390;2023-08-06T12:17:19;1.40;;;1.30;;
31584;SDS011;18191;51.288;12.390;2023-08-06T12:22:09;1.73;;;1.37;;
31584;SDS011;18191;51.288;12.390;2023-08-06T12:31:52;1.83;;;1.30;;
31584;SDS011;18191;51.288;12.390;2023-08-06T12:36:42;1.63;;;1.08;;
31584;SDS011;18191;51.288;12.390;2023-08-06T12:46:22;2.17;;;1.10;;
31584;SDS011;18191;51.288;12.390;2023-08-06T12:56:04;1.55;;;1.02;;
31584;SDS011;18191;51.288;12.390;2023-08-06T13:00:54;3.15;;;1.33;;
31584;SDS011;18191;51.288;12.390;2023-08-06T13:05:45;4.28;;;1.38;;
31584;SDS011;18191;51.288;12.390;2023-08-06T13:10:35;1.77;;;1.20;;
31584;SDS011;18191;51.288;12.390;2023-08-06T13:15:26;2.03;;;1.17;;
31584;SDS011;18191;51.288;12.390;2023-08-06T13:20:16;1.57;;;0.90;;
31584;SDS011;18191;51.288;12.390;2023-08-06T13:25:08;3.60;;;1.10;;
31584;SDS011;18191;51.288;12.390;2023-08-06T13:29:59;1.90;;;1.30;;
31584;SDS011;18191;51.288;12.390;2023-08-06T13:34:49;4.03;;;1.10;;
31584;SDS011;18191;51.288;12.390;2023-08-06T13:39:39;1.55;;;1.25;;
31584;SDS011;18191;51.288;12.390;2023-08-06T13:44:29;2.70;;;1.30;;
31584;SDS011;18191;51.288;12.390;2023-08-06T13:49:20;2.13;;;1.20;;
31584;SDS011;18191;51.288;12.390;2023-08-06T13:54:10;4.65;;;1.10;;
31584;SDS011;18191;51.288;12.390;2023-08-06T13:59:00;1.73;;;1.23;;
31584;SDS011;18191;51.288;12.390;2023-08-06T14:03:51;2.08;;;1.27;;
31584;SDS011;18191;51.288;12.390;2023-08-06T14:08:41;2.28;;;1.00;;
31584;SDS011;18191;51.288;12.390;2023-08-06T14:13:32;0.90;;;0.80;;
31584;SDS011;18191;51.288;12.390;2023-08-06T14:23:12;2.22;;;1.10;;
31584;SDS011;18191;51.288;12.390;2023-08-06T14:28:02;3.08;;;1.23;;
31584;SDS011;18191;51.288;12.390;2023-08-06T14:32:53;2.55;;;0.90;;
31584;SDS011;18191;51.288;12.390;2023-08-06T14:37:43;2.20;;;1.10;;
31584;SDS011;18191;51.288;12.390;2023-08-06T14:42:35;1.90;;;0.98;;
31584;SDS011;18191;51.288;12.390;2023-08-06T14:47:25;6.10;;;1.57;;
31584;SDS011;18191;51.288;12.390;2023-08-06T14:52:16;1.83;;;1.30;;
31584;SDS011;18191;51.288;12.390;2023-08-06T14:57:06;1.85;;;1.10;;
31584;SDS011;18191;51.288;12.390;2023-08-06T15:01:58;1.67;;;1.15;;
31584;SDS011;18191;51.288;12.390;2023-08-06T15:06:48;1.90;;;0.77;;
31584;SDS011;18191;51.288;12.390;2023-08-06T15:11:38;1.60;;;1.27;;
31584;SDS011;18191;51.288;12.390;2023-08-06T15:16:29;2.05;;;1.23;;
31584;SDS011;18191;51.288;12.390;2023-08-06T15:21:19;1.47;;;0.93;;
31584;SDS011;18191;51.288;12.390;2023-08-06T15:31:00;1.55;;;0.90;;
31584;SDS011;18191;51.288;12.390;2023-08-06T15:35:51;11.57;;;1.08;;
31584;SDS011;18191;51.288;12.390;2023-08-06T15:40:41;4.03;;;0.95;;
31584;SDS011;18191;51.288;12.390;2023-08-06T15:45:34;1.30;;;0.85;;
31584;SDS011;18191;51.288;12.390;2023-08-06T15:55:15;1.45;;;0.95;;
31584;SDS011;18191;51.288;12.390;2023-08-06T16:00:06;0.85;;;0.80;;
31584;SDS011;18191;51.288;12.390;2023-08-06T16:04:58;2.25;;;1.33;;
31584;SDS011;18191;51.288;12.390;2023-08-06T16:09:49;2.40;;;1.70;;
31584;SDS011;18191;51.288;12.390;2023-08-06T16:14:40;6.47;;;1.85;;
31584;SDS011;18191;51.288;12.390;2023-08-06T16:19:31;3.67;;;2.20;;
31584;SDS011;18191;51.288;12.390;2023-08-06T16:24:22;4.68;;;1.70;;
31584;SDS011;18191;51.288;12.390;2023-08-06T16:29:12;3.35;;;1.73;;
31584;SDS011;18191;51.288;12.390;2023-08-06T16:34:02;5.07;;;1.23;;
31584;SDS011;18191;51.288;12.390;2023-08-06T16:38:52;28.77;;;3.08;;
31584;SDS011;18191;51.288;12.390;2023-08-06T16:43:44;9.73;;;2.22;;
31584;SDS011;18191;51.288;12.390;2023-08-06T16:48:34;11.52;;;2.30;;
31584;SDS011;18191;51.288;12.390;2023-08-06T16:53:26;8.07;;;1.98;;
31584;SDS011;18191;51.288;12.390;2023-08-06T16:58:16;7.32;;;1.88;;
31584;SDS011;18191;51.288;12.390;2023-08-06T17:03:07;4.28;;;2.00;;
31584;SDS011;18191;51.288;12.390;2023-08-06T17:07:57;9.00;;;2.53;;
31584;SDS011;18191;51.288;12.390;2023-08-06T17:12:47;7.37;;;2.13;;
31584;SDS011;18191;51.288;12.390;2023-08-06T17:17:38;5.43;;;2.63;;
31584;SDS011;18191;51.288;12.390;2023-08-06T17:22:28;9.13;;;2.28;;
31584;SDS011;18191;51.288;12.390;2023-08-06T17:27:19;5.93;;;2.17;;
31584;SDS011;18191;51.288;12.390;2023-08-06T17:32:09;5.13;;;2.10;;
31584;SDS011;18191;51.288;12.390;2023-08-06T17:37:01;5.00;;;1.60;;
31584;SDS011;18191;51.288;12.390;2023-08-06T17:41:55;29.45;;;3.90;;
31584;SDS011;18191;51.288;12.390;2023-08-06T17:46:45;6.13;;;2.47;;
31584;SDS011;18191;51.288;12.390;2023-08-06T17:51:36;8.85;;;2.30;;
31584;SDS011;18191;51.288;12.390;2023-08-06T18:01:16;4.50;;;2.13;;
31584;SDS011;18191;51.288;12.390;2023-08-06T18:06:06;8.27;;;2.72;;
31584;SDS011;18191;51.288;12.390;2023-08-06T18:15:47;3.43;;;2.03;;
31584;SDS011;18191;51.288;12.390;2023-08-06T18:20:39;6.03;;;2.53;;
31584;SDS011;18191;51.288;12.390;2023-08-06T18:30:19;4.68;;;2.25;;
31584;SDS011;18191;51.288;12.390;2023-08-06T18:40:00;7.35;;;3.03;;
31584;SDS011;18191;51.288;12.390;2023-08-06T18:44:53;8.68;;;2.35;;
31584;SDS011;18191;51.288;12.390;2023-08-06T18:54:33;3.63;;;1.52;;
31584;SDS011;18191;51.288;12.390;2023-08-06T19:04:14;3.47;;;1.90;;
31584;SDS011;18191;51.288;12.390;2023-08-06T19:09:05;6.00;;;3.60;;
31584;SDS011;18191;51.288;12.390;2023-08-06T19:18:45;3.27;;;1.57;;
31584;SDS011;18191;51.288;12.390;2023-08-06T19:28:26;7.47;;;1.83;;
31584;SDS011;18191;51.288;12.390;2023-08-06T19:38:07;4.03;;;1.80;;
31584;SDS011;18191;51.288;12.390;2023-08-06T19:42:57;3.45;;;1.77;;
31584;SDS011;18191;51.288;12.390;2023-08-06T19:47:48;8.27;;;2.70;;
31584;SDS011;18191;51.288;12.390;2023-08-06T19:57:28;5.32;;;2.00;;
31584;SDS011;18191;51.288;12.390;2023-08-06T20:07:09;5.03;;;2.25;;
31584;SDS011;18191;51.288;12.390;2023-08-06T20:11:59;6.15;;;2.63;;
31584;SDS011;18191;51.288;12.390;2023-08-06T20:16:49;7.38;;;2.15;;
31584;SDS011;18191;51.288;12.390;2023-08-06T20:21:40;8.02;;;2.28;;
31584;SDS011;18191;51.288;12.390;2023-08-06T20:26:30;5.23;;;2.80;;
31584;SDS011;18191;51.288;12.390;2023-08-06T20:31:20;5.40;;;2.67;;
31584;SDS011;18191;51.288;12.390;2023-08-06T20:36:10;6.47;;;2.65;;
31584;SDS011;18191;51.288;12.390;2023-08-06T20:41:01;6.25;;;2.70;;
31584;SDS011;18191;51.288;12.390;2023-08-06T20:45:52;4.68;;;2.70;;
31584;SDS011;18191;51.288;12.390;2023-08-06T20:50:43;3.50;;;2.40;;
31584;SDS011;18191;51.288;12.390;2023-08-06T20:55:33;3.50;;;2.40;;
31584;SDS011;18191;51.288;12.390;2023-08-06T21:05:14;6.03;;;3.25;;
31584;SDS011;18191;51.288;12.390;2023-08-06T21:14:55;2.58;;;2.00;;
31584;SDS011;18191;51.288;12.390;2023-08-06T21:24:36;6.85;;;2.22;;
31584;SDS011;18191;51.288;12.390;2023-08-06T21:29:26;6.45;;;2.25;;
31584;SDS011;18191;51.288;12.390;2023-08-06T21:34:17;5.40;;;2.45;;
31584;SDS011;18191;51.288;12.390;2023-08-06T21:39:07;4.30;;;2.00;;
31584;SDS011;18191;51.288;12.390;2023-08-06T21:43:58;6.43;;;2.25;;
31584;SDS011;18191;51.288;12.390;2023-08-06T21:53:39;7.78;;;2.65;;
31584;SDS011;18191;51.288;12.390;2023-08-06T21:58:29;3.90;;;2.42;;
31584;SDS011;18191;51.288;12.390;2023-08-06T22:08:10;5.47;;;2.97;;
31584;SDS011;18191;51.288;12.390;2023-08-06T22:13:01;8.23;;;3.60;;
31584;SDS011;18191;51.288;12.390;2023-08-06T22:22:41;6.72;;;3.50;;
31584;SDS011;18191;51.288;12.390;2023-08-06T22:27:31;4.28;;;3.10;;
31584;SDS011;18191;51.288;12.390;2023-08-06T22:32:22;3.85;;;2.25;;
31584;SDS011;18191;51.288;12.390;2023-08-06T22:42:02;4.20;;;2.75;;
31584;SDS011;18191;51.288;12.390;2023-08-06T22:46:53;6.15;;;2.50;;
31584;SDS011;18191;51.288;12.390;2023-08-06T22:56:33;3.88;;;2.30;;
31584;SDS011;18191;51.288;12.390;2023-08-06T23:06:14;6.50;;;1.95;;
31584;SDS011;18191;51.288;12.390;2023-08-06T23:11:05;11.35;;;1.90;;
31584;SDS011;18191;51.288;12.390;2023-08-06T23:15:57;4.90;;;2.10;;
31584;SDS011;18191;51.288;12.390;2023-08-06T23:20:47;4.82;;;1.60;;
31584;SDS011;18191;51.288;12.390;2023-08-06T23:25:37;3.28;;;1.90;;
31584;SDS011;18191;51.288;12.390;2023-08-06T23:30:28;5.93;;;1.95;;
31584;SDS011;18191;51.288;12.390;2023-08-06T23:35:19;4.68;;;2.42;;
31584;SDS011;18191;51.288;12.390;2023-08-06T23:40:09;4.70;;;2.78;;
31584;SDS011;18191;51.288;12.390;2023-08-06T23:49:50;7.23;;;2.87;;
31584;SDS011;18191;51.288;12.390;2023-08-06T23:54:41;9.80;;;3.03;;
